createdAt,value
2022-11-15T00:00:04.372Z,29.67
2022-11-15T00:02:34.803Z,29.57
2022-11-15T00:05:05.475Z,30.30
2022-11-15T00:07:54.553Z,31.15
2022-11-15T00:10:08.819Z,31.03
2022-11-15T00:12:39.302Z,31.03
2022-11-15T00:15:10.939Z,30.65
2022-11-15T00:17:41.375Z,29.73
2022-11-15T00:20:12.515Z,31.33
2022-11-15T00:22:42.925Z,30.67
2022-11-15T00:25:13.377Z,30.40
2022-11-15T00:27:43.775Z,30.97
2022-11-15T00:30:14.954Z,30.30
2022-11-15T00:32:45.475Z,30.02
2022-11-15T00:35:15.994Z,30.37
2022-11-15T00:37:48.245Z,31.03
2022-11-15T00:40:18.726Z,30.12
2022-11-15T00:42:49.395Z,29.67
2022-11-15T00:45:19.913Z,30.90
2022-11-15T00:47:50.459Z,31.13
2022-11-15T00:50:21.200Z,30.30
2022-11-15T00:52:51.700Z,30.17
2022-11-15T00:55:22.465Z,29.80
2022-11-15T00:57:52.855Z,29.57
2022-11-15T01:00:23.417Z,29.23
2022-11-15T01:02:54.781Z,32.17
2022-11-15T01:05:25.134Z,30.50
2022-11-15T01:07:59.483Z,29.37
2022-11-15T01:10:29.927Z,28.90
2022-11-15T01:13:00.453Z,31.10
2022-11-15T01:15:30.982Z,30.17
2022-11-15T01:18:01.493Z,30.53
2022-11-15T01:20:31.820Z,30.85
2022-11-15T01:23:02.285Z,30.03
2022-11-15T01:25:32.660Z,31.30
2022-11-15T01:28:03.049Z,30.50
2022-11-15T01:30:33.483Z,30.93
2022-11-15T01:33:03.885Z,30.80
2022-11-15T01:35:34.245Z,29.30
2022-11-15T01:38:04.573Z,31.57
2022-11-15T01:40:35.000Z,31.90
2022-11-15T01:43:30.006Z,30.57
2022-11-15T01:46:09.606Z,31.37
2022-11-15T01:48:40.050Z,30.27
2022-11-15T01:51:13.728Z,30.87
2022-11-15T01:53:47.448Z,30.43
2022-11-15T01:56:21.094Z,31.33
2022-11-15T01:58:53.023Z,30.57
2022-11-15T02:01:25.377Z,30.17
2022-11-15T02:04:01.133Z,30.87
2022-11-15T02:06:32.069Z,31.43
2022-11-15T02:09:03.220Z,30.37
2022-11-15T02:11:34.174Z,30.07
2022-11-15T02:14:06.280Z,30.20
2022-11-15T02:17:06.767Z,30.93
2022-11-15T02:19:45.938Z,30.23
2022-11-15T02:22:35.984Z,30.70
2022-11-15T02:25:39.446Z,29.50
2022-11-15T02:28:30.349Z,30.27
2022-11-15T02:31:10.112Z,30.83
2022-11-15T02:33:58.694Z,34.23
2022-11-15T02:36:41.363Z,31.37
2022-11-15T02:39:26.775Z,30.43
2022-11-15T02:42:13.847Z,30.67
2022-11-15T02:44:47.551Z,29.93
2022-11-15T02:47:19.854Z,31.03
2022-11-15T02:49:55.534Z,29.33
2022-11-15T02:52:27.843Z,30.97
2022-11-15T02:55:01.256Z,30.23
2022-11-15T02:57:51.314Z,30.57
2022-11-15T03:00:22.558Z,30.37
2022-11-15T03:03:26.273Z,30.53
2022-11-15T03:06:05.666Z,29.13
2022-11-15T03:08:57.054Z,29.80
2022-11-15T03:11:28.301Z,29.50
2022-11-15T03:14:04.697Z,28.70
2022-11-15T03:16:44.333Z,28.57
2022-11-15T03:19:20.818Z,28.90
2022-11-15T03:21:52.099Z,29.47
2022-11-15T03:24:26.280Z,29.60
2022-11-15T03:26:58.722Z,29.97
2022-11-15T03:29:34.827Z,29.23
2022-11-15T03:32:11.207Z,29.33
2022-11-15T03:35:05.757Z,29.17
2022-11-15T03:38:05.066Z,29.53
2022-11-15T03:40:44.465Z,29.33
2022-11-15T03:43:44.662Z,28.23
2022-11-15T03:46:24.136Z,28.70
2022-11-15T03:48:57.584Z,43.90
2022-11-15T03:51:28.335Z,29.80
2022-11-15T03:53:58.726Z,28.67
2022-11-15T03:56:29.155Z,28.70
2022-11-15T03:58:59.804Z,29.83
2022-11-15T04:01:30.221Z,29.53
2022-11-15T04:04:00.677Z,29.73
2022-11-15T04:06:31.138Z,28.37
2022-11-15T04:09:01.594Z,29.63
2022-11-15T04:11:32.014Z,31.17
2022-11-15T04:14:02.599Z,29.17
2022-11-15T04:16:33.024Z,28.13
2022-11-15T04:19:21.679Z,28.77
2022-11-15T04:22:09.703Z,28.97
2022-11-15T04:24:40.115Z,28.70
2022-11-15T04:27:14.386Z,29.17
2022-11-15T04:29:44.897Z,29.20
2022-11-15T04:32:15.327Z,29.87
2022-11-15T04:34:45.742Z,30.90
2022-11-15T04:37:17.165Z,31.87
2022-11-15T04:39:47.614Z,33.50
2022-11-15T04:42:18.080Z,29.93
2022-11-15T04:44:48.455Z,31.13
2022-11-15T04:47:19.884Z,30.60
2022-11-15T04:49:50.224Z,30.50
2022-11-15T04:52:20.771Z,29.13
2022-11-15T04:54:51.139Z,27.50
2022-11-15T04:57:21.710Z,29.57
2022-11-15T04:59:52.219Z,26.97
2022-11-15T05:02:22.629Z,27.00
2022-11-15T05:04:52.975Z,27.10
2022-11-15T05:07:23.752Z,28.67
2022-11-15T05:09:54.193Z,27.47
2022-11-15T05:12:24.629Z,27.03
2022-11-15T05:14:55.037Z,27.90
2022-11-15T05:17:26.444Z,28.43
2022-11-15T05:19:58.653Z,28.27
2022-11-15T05:22:29.591Z,35.33
2022-11-15T05:25:00.162Z,37.67
2022-11-15T05:27:30.634Z,34.13
2022-11-15T05:30:01.036Z,33.27
2022-11-15T05:32:31.674Z,29.40
2022-11-15T05:35:02.217Z,32.70
2022-11-15T05:37:32.860Z,27.83
2022-11-15T05:40:03.263Z,30.10
2022-11-15T05:42:33.594Z,28.97
2022-11-15T05:45:06.548Z,28.37
2022-11-15T05:47:40.115Z,29.10
2022-11-15T05:50:15.856Z,28.07
2022-11-15T05:52:48.067Z,29.27
2022-11-15T05:55:18.862Z,29.00
2022-11-15T05:57:49.479Z,28.03
2022-11-15T06:00:20.290Z,29.53
2022-11-15T06:02:50.742Z,28.57
2022-11-15T06:05:21.207Z,28.53
2022-11-15T06:07:53.237Z,27.93
2022-11-15T06:10:23.721Z,29.43
2022-11-15T06:13:01.411Z,34.47
2022-11-15T06:15:31.810Z,29.00
2022-11-15T06:18:02.574Z,34.90
2022-11-15T06:20:33.254Z,31.67
2022-11-15T06:23:05.313Z,29.63
2022-11-15T06:25:35.641Z,29.17
2022-11-15T06:28:06.264Z,29.80
2022-11-15T06:30:36.698Z,29.07
2022-11-15T06:33:09.768Z,28.20
2022-11-15T06:35:40.241Z,28.03
2022-11-15T06:38:12.095Z,28.53
2022-11-15T06:40:42.482Z,29.27
2022-11-15T06:43:13.488Z,29.10
2022-11-15T06:45:43.851Z,27.37
2022-11-15T06:48:14.490Z,30.53
2022-11-15T06:50:44.867Z,28.40
2022-11-15T06:53:15.275Z,28.83
2022-11-15T06:55:45.690Z,27.60
2022-11-15T06:58:16.199Z,29.63
2022-11-15T07:00:46.635Z,27.57
2022-11-15T07:03:17.087Z,29.00
2022-11-15T07:05:55.630Z,29.10
2022-11-15T07:08:28.134Z,28.87
2022-11-15T07:11:03.418Z,27.90
2022-11-15T07:13:35.428Z,27.90
2022-11-15T07:16:11.364Z,28.93
2022-11-15T07:18:42.776Z,29.43
2022-11-15T07:21:14.975Z,34.43
2022-11-15T07:23:45.558Z,29.50
2022-11-15T07:26:16.077Z,29.80
2022-11-15T07:28:46.534Z,29.23
2022-11-15T07:31:16.854Z,29.77
2022-11-15T07:33:47.265Z,28.57
2022-11-15T07:36:17.685Z,30.73
2022-11-15T07:38:48.090Z,29.47
2022-11-15T07:41:18.502Z,31.00
2022-11-15T07:43:49.084Z,29.33
2022-11-15T07:46:19.593Z,32.00
2022-11-15T07:48:49.968Z,29.90
2022-11-15T07:51:20.552Z,29.83
2022-11-15T07:53:51.203Z,28.40
2022-11-15T07:56:21.847Z,29.33
2022-11-15T07:58:52.324Z,28.73
2022-11-15T08:01:22.741Z,27.07
2022-11-15T08:03:53.352Z,27.13
2022-11-15T08:06:23.760Z,27.33
2022-11-15T08:08:54.542Z,27.23
2022-11-15T08:11:26.444Z,26.53
2022-11-15T08:13:56.851Z,26.23
2022-11-15T08:16:27.211Z,27.53
2022-11-15T08:18:57.702Z,26.43
2022-11-15T08:21:28.114Z,25.47
2022-11-15T08:23:58.437Z,25.27
2022-11-15T08:26:31.016Z,25.63
2022-11-15T08:29:01.409Z,25.13
2022-11-15T08:31:31.872Z,24.80
2022-11-15T08:34:03.303Z,25.67
2022-11-15T08:36:43.024Z,23.87
2022-11-15T08:39:06.219Z,24.72
2022-11-15T08:41:39.379Z,29.40
2022-11-15T08:44:09.837Z,26.50
2022-11-15T08:46:40.224Z,24.70
2022-11-15T08:49:10.817Z,23.22
2022-11-15T08:51:41.526Z,22.60
2022-11-15T08:54:12.019Z,23.67
2022-11-15T08:56:42.549Z,25.92
2022-11-15T08:59:13.073Z,23.22
2022-11-15T09:01:43.596Z,23.27
2022-11-15T09:04:14.099Z,23.47
2022-11-15T09:06:44.563Z,26.00
2022-11-15T09:09:15.186Z,22.35
2022-11-15T09:11:45.639Z,21.12
2022-11-15T09:14:16.602Z,20.02
2022-11-15T09:16:47.020Z,19.92
2022-11-15T09:19:17.615Z,20.50
2022-11-15T09:21:48.165Z,20.05
2022-11-15T09:24:18.897Z,23.47
2022-11-15T09:26:50.871Z,18.02
2022-11-15T09:29:21.389Z,18.25
2022-11-15T09:31:55.883Z,18.32
2022-11-15T09:34:27.007Z,19.20
2022-11-15T09:36:57.406Z,18.65
2022-11-15T09:39:27.857Z,18.62
2022-11-15T09:42:07.145Z,18.57
2022-11-15T09:44:47.572Z,19.70
2022-11-15T09:47:21.180Z,17.85
2022-11-15T09:49:58.155Z,19.27
2022-11-15T09:52:29.964Z,17.87
2022-11-15T09:55:00.523Z,19.20
2022-11-15T09:57:37.118Z,18.92
2022-11-15T10:00:43.887Z,16.23
2022-11-15T10:03:03.419Z,16.80
2022-11-15T10:05:36.171Z,15.30
2022-11-15T10:08:09.636Z,15.30
2022-11-15T10:10:47.609Z,14.07
2022-11-15T10:13:23.958Z,13.60
2022-11-15T10:15:57.464Z,12.88
2022-11-15T10:18:34.443Z,12.35
2022-11-15T10:21:17.153Z,11.55
2022-11-15T10:23:47.697Z,12.60
2022-11-15T10:26:19.077Z,11.65
2022-11-15T10:28:49.510Z,11.43
2022-11-15T10:31:31.685Z,10.90
2022-11-15T10:34:15.671Z,11.22
2022-11-15T10:36:57.372Z,10.70
2022-11-15T10:39:28.332Z,10.98
2022-11-15T10:41:58.906Z,10.32
2022-11-15T10:44:31.470Z,10.58
2022-11-15T10:47:07.840Z,10.78
2022-11-15T10:49:38.402Z,11.00
2022-11-15T10:52:21.480Z,10.90
2022-11-15T10:54:57.779Z,10.88
2022-11-15T10:57:33.828Z,10.60
2022-11-15T11:00:10.056Z,10.95
2022-11-15T11:02:43.242Z,10.38
2022-11-15T11:05:28.515Z,10.35
2022-11-15T11:08:08.053Z,10.25
2022-11-15T11:10:57.157Z,10.43
2022-11-15T11:13:25.527Z,10.55
2022-11-15T11:16:11.075Z,10.05
2022-11-15T11:18:44.516Z,9.93
2022-11-15T11:21:30.383Z,10.18
2022-11-15T11:24:02.493Z,10.32
2022-11-15T11:27:01.789Z,10.28
2022-11-15T11:29:37.803Z,9.85
2022-11-15T11:32:33.949Z,10.03
2022-11-15T11:35:25.732Z,10.23
2022-11-15T11:38:04.798Z,9.85
2022-11-15T11:40:38.279Z,9.40
2022-11-15T11:43:26.992Z,9.00
2022-11-15T11:46:06.225Z,10.30
2022-11-15T11:48:54.504Z,9.53
2022-11-15T11:51:43.139Z,9.70
2022-11-15T11:54:22.085Z,9.53
2022-11-15T11:56:54.704Z,10.03
2022-11-15T11:59:43.259Z,10.45
2022-11-15T12:02:20.047Z,14.20
2022-11-15T12:04:53.714Z,26.82
2022-11-15T12:07:27.319Z,55.80
2022-11-15T12:10:17.302Z,29.40
2022-11-15T12:13:13.683Z,24.85
2022-11-15T12:16:11.513Z,24.77
2022-11-15T12:18:45.498Z,25.40
2022-11-15T12:21:33.900Z,20.77
2022-11-15T12:24:10.628Z,18.85
2022-11-15T12:26:44.078Z,19.73
2022-11-15T12:29:20.259Z,19.42
2022-11-15T12:31:53.814Z,18.35
2022-11-15T12:34:30.104Z,18.50
2022-11-15T12:37:00.584Z,17.42
2022-11-15T12:40:07.458Z,17.70
2022-11-15T12:42:43.718Z,16.67
2022-11-15T12:45:37.778Z,16.55
2022-11-15T12:48:23.142Z,16.50
2022-11-15T12:50:56.845Z,15.28
2022-11-15T12:53:32.767Z,16.02
2022-11-15T12:56:16.668Z,15.10
2022-11-15T12:58:52.633Z,14.58
2022-11-15T13:01:40.663Z,14.07
2022-11-15T13:04:24.992Z,14.63
2022-11-15T13:07:08.742Z,14.55
2022-11-15T13:09:42.432Z,13.78
2022-11-15T13:12:24.896Z,14.03
2022-11-15T13:15:16.647Z,13.95
2022-11-15T13:17:52.245Z,13.60
2022-11-15T13:20:33.831Z,13.43
2022-11-15T13:23:16.725Z,13.40
2022-11-15T13:26:05.301Z,12.75
2022-11-15T13:28:45.439Z,12.45
2022-11-15T13:31:41.637Z,11.68
2022-11-15T13:34:49.797Z,12.43
2022-11-15T13:36:56.599Z,12.95
2022-11-15T13:39:30.071Z,12.18
2022-11-15T13:42:01.007Z,12.53
2022-11-15T13:44:33.971Z,12.58
2022-11-15T13:47:07.190Z,11.83
2022-11-15T13:49:38.854Z,11.43
2022-11-15T13:52:17.924Z,11.90
2022-11-15T13:55:08.089Z,11.85
2022-11-15T13:57:53.234Z,12.28
2022-11-15T14:00:44.458Z,11.35
2022-11-15T14:03:35.821Z,12.10
2022-11-15T14:06:09.992Z,11.95
2022-11-15T14:08:42.480Z,10.80
2022-11-15T14:11:21.285Z,11.12
2022-11-15T14:14:13.033Z,10.60
2022-11-15T14:16:49.547Z,10.48
2022-11-15T14:19:28.849Z,10.50
2022-11-15T14:22:20.928Z,10.98
2022-11-15T14:25:22.432Z,9.95
2022-11-15T14:28:15.576Z,10.10
2022-11-15T14:30:49.065Z,9.93
2022-11-15T14:33:34.564Z,10.78
2022-11-15T14:36:13.682Z,9.85
2022-11-15T14:38:44.603Z,10.30
2022-11-15T14:41:27.997Z,8.90
2022-11-15T14:43:58.474Z,10.45
2022-11-15T14:46:29.053Z,9.93
2022-11-15T14:48:59.623Z,9.80
2022-11-15T14:51:30.287Z,10.15
2022-11-15T14:54:00.690Z,9.63
2022-11-15T14:56:31.099Z,9.98
2022-11-15T14:59:01.480Z,9.95
2022-11-15T15:01:33.079Z,9.88
2022-11-15T15:04:05.916Z,9.80
2022-11-15T15:06:35.547Z,9.03
2022-11-15T15:09:06.162Z,9.68
2022-11-15T15:11:36.725Z,9.60
2022-11-15T15:14:07.081Z,9.65
2022-11-15T15:16:37.498Z,9.65
2022-11-15T15:19:07.968Z,9.35
2022-11-15T15:21:39.406Z,11.93
2022-11-15T15:24:17.304Z,10.70
2022-11-15T15:26:47.678Z,10.00
2022-11-15T15:29:17.966Z,10.38
2022-11-15T15:31:51.406Z,9.65
2022-11-15T15:34:21.799Z,9.88
2022-11-15T15:36:53.796Z,10.05
2022-11-15T15:39:24.097Z,10.63
2022-11-15T15:41:57.398Z,11.30
2022-11-15T15:44:26.608Z,11.60
2022-11-15T15:46:58.832Z,10.78
2022-11-15T15:49:29.233Z,11.03
2022-11-15T15:51:59.656Z,10.50
2022-11-15T15:54:30.276Z,12.33
2022-11-15T15:57:00.808Z,10.93
2022-11-15T15:59:31.312Z,11.10
2022-11-15T16:02:01.826Z,11.38
2022-11-15T16:04:32.262Z,10.98
2022-11-15T16:07:03.861Z,12.37
2022-11-15T16:09:52.456Z,11.40
2022-11-15T16:12:22.927Z,12.28
2022-11-15T16:14:53.463Z,12.93
2022-11-15T16:17:33.893Z,12.30
2022-11-15T16:20:02.150Z,13.00
2022-11-15T16:22:32.601Z,12.80
2022-11-15T16:25:03.111Z,12.58
2022-11-15T16:27:33.937Z,11.75
2022-11-15T16:30:04.866Z,12.15
2022-11-15T16:32:35.610Z,12.60
2022-11-15T16:35:06.406Z,12.45
2022-11-15T16:37:36.779Z,12.98
2022-11-15T16:40:09.294Z,11.57
2022-11-15T16:42:39.724Z,12.88
2022-11-15T16:45:14.487Z,12.60
2022-11-15T16:47:44.868Z,11.53
2022-11-15T16:50:24.800Z,11.68
2022-11-15T16:53:01.964Z,11.63
2022-11-15T16:55:32.460Z,12.33
2022-11-15T16:58:02.859Z,12.07
2022-11-15T17:00:33.245Z,11.83
2022-11-15T17:03:03.914Z,12.30
2022-11-15T17:05:34.798Z,12.55
2022-11-15T17:08:06.546Z,12.13
2022-11-15T17:10:41.489Z,13.40
2022-11-15T17:13:15.354Z,11.88
2022-11-15T17:15:46.090Z,12.18
2022-11-15T17:18:16.414Z,13.88
2022-11-15T17:20:46.839Z,13.30
2022-11-15T17:23:17.427Z,14.13
2022-11-15T17:33:49.849Z,7.03
2022-11-15T17:36:21.145Z,8.35
2022-11-15T17:38:58.104Z,8.08
2022-11-15T17:41:24.754Z,7.72
2022-11-15T17:43:58.060Z,7.08
2022-11-15T17:46:29.411Z,6.60
2022-11-15T18:07:20.020Z,25.30
2022-11-15T18:09:52.680Z,27.95
2022-11-15T18:12:26.524Z,27.85
2022-11-15T18:14:58.120Z,28.23
2022-11-15T18:17:29.558Z,28.32
2022-11-15T18:20:02.249Z,30.00
2022-11-15T18:22:36.416Z,30.62
2022-11-15T18:25:09.262Z,30.27
2022-11-15T18:27:46.763Z,30.75
2022-11-15T18:30:18.778Z,30.00
2022-11-15T18:32:51.103Z,33.75
2022-11-15T18:35:23.931Z,32.50
2022-11-15T18:37:56.421Z,32.50
2022-11-15T18:40:27.192Z,33.78
2022-11-15T18:42:59.837Z,34.08
2022-11-15T18:45:30.563Z,34.55
2022-11-15T18:48:02.009Z,33.65
2022-11-15T18:50:35.211Z,33.35
2022-11-15T18:53:08.833Z,33.13
2022-11-15T18:55:40.796Z,34.27
2022-11-15T18:58:11.404Z,34.67
2022-11-15T19:00:43.511Z,33.38
2022-11-15T19:03:14.075Z,33.50
2022-11-15T19:05:50.033Z,33.97
2022-11-15T19:08:24.867Z,33.83
2022-11-15T19:10:57.837Z,33.28
2022-11-15T19:13:30.439Z,34.23
2022-11-15T19:16:04.346Z,32.98
2022-11-15T19:18:35.387Z,33.80
2022-11-15T19:21:14.873Z,34.43
2022-11-15T19:23:46.033Z,35.87
2022-11-15T19:26:17.749Z,35.30
2022-11-15T19:28:53.586Z,35.30
2022-11-15T19:31:30.119Z,35.27
2022-11-15T19:34:04.678Z,34.30
2022-11-15T19:36:40.556Z,35.57
2022-11-15T19:39:14.326Z,35.97
2022-11-15T19:41:46.514Z,36.95
2022-11-15T19:44:18.271Z,37.60
2022-11-15T19:46:50.544Z,37.45
2022-11-15T19:49:24.328Z,36.15
2022-11-15T19:51:55.889Z,37.60
2022-11-15T19:54:26.431Z,36.45
2022-11-15T19:56:59.798Z,36.65
2022-11-15T19:59:32.567Z,37.33
2022-11-15T20:02:05.933Z,36.53
2022-11-15T20:04:36.457Z,36.73
2022-11-15T20:07:13.947Z,36.08
2022-11-15T20:09:47.105Z,37.93
2022-11-15T20:12:21.653Z,35.17
2022-11-15T20:14:57.112Z,36.27
2022-11-15T20:17:27.782Z,34.63
2022-11-15T20:19:58.617Z,34.57
2022-11-15T20:22:30.419Z,35.00
2022-11-15T20:25:03.131Z,36.27
2022-11-15T20:27:33.805Z,34.95
2022-11-15T20:30:06.350Z,34.53
2022-11-15T20:32:39.172Z,33.00
2022-11-15T20:35:15.535Z,35.67
2022-11-15T20:37:49.880Z,32.98
2022-11-15T20:40:21.753Z,32.27
2022-11-15T20:42:57.838Z,32.42
2022-11-15T20:45:27.477Z,32.33
2022-11-15T20:47:59.473Z,31.57
2022-11-15T20:50:46.219Z,31.53
2022-11-15T20:53:03.746Z,31.57
2022-11-15T20:55:37.369Z,29.73
2022-11-15T20:58:10.512Z,31.10
2022-11-15T21:00:46.313Z,31.37
2022-11-15T21:03:18.714Z,31.37
2022-11-15T21:05:51.194Z,31.27
2022-11-15T21:08:23.031Z,32.10
2022-11-15T21:11:15.252Z,30.00
2022-11-15T21:13:45.873Z,31.00
2022-11-15T21:16:17.685Z,30.57
2022-11-15T21:18:48.338Z,29.10
2022-11-15T21:21:18.783Z,29.77
2022-11-15T21:23:51.639Z,28.87
2022-11-15T21:26:37.775Z,31.20
2022-11-15T21:29:13.691Z,31.03
2022-11-15T21:31:48.215Z,29.50
2022-11-15T21:34:23.521Z,29.97
2022-11-15T21:36:57.898Z,29.67
2022-11-15T21:39:29.409Z,31.30
2022-11-15T21:42:01.555Z,29.77
2022-11-15T21:44:32.080Z,30.47
2022-11-15T21:47:06.189Z,29.33
2022-11-15T21:49:36.878Z,30.40
2022-11-15T21:52:07.898Z,30.02
2022-11-15T21:54:41.567Z,30.67
2022-11-15T21:57:14.644Z,29.73
2022-11-15T22:00:04.783Z,30.00
2022-11-15T22:02:35.707Z,28.87
2022-11-15T22:05:07.373Z,27.13
2022-11-15T22:07:40.250Z,27.82
2022-11-15T22:10:11.370Z,29.02
2022-11-15T22:12:47.530Z,29.67
2022-11-15T22:15:18.528Z,28.15
2022-11-15T22:17:58.384Z,28.27
2022-11-15T22:20:44.634Z,29.83
2022-11-15T22:23:03.505Z,26.23
2022-11-15T22:25:35.468Z,28.07
2022-11-15T22:28:06.145Z,30.75
2022-11-15T22:30:36.818Z,30.93
2022-11-15T22:33:11.341Z,29.37
2022-11-15T22:35:48.501Z,29.70
2022-11-15T22:38:19.496Z,29.67
2022-11-15T22:40:51.188Z,31.47
2022-11-15T22:43:23.666Z,31.87
2022-11-15T22:45:57.567Z,30.93
2022-11-15T22:48:30.413Z,31.63
2022-11-15T22:51:01.851Z,31.60
2022-11-15T22:53:37.186Z,30.67
2022-11-15T22:56:08.355Z,31.33
2022-11-15T22:58:40.233Z,28.20
2022-11-15T23:01:22.164Z,32.47
2022-11-15T23:03:52.906Z,31.00
2022-11-15T23:06:24.911Z,31.23
2022-11-15T23:08:55.525Z,32.47
2022-11-15T23:11:45.460Z,31.07
2022-11-15T23:14:17.388Z,30.30
2022-11-15T23:16:48.024Z,32.37
2022-11-15T23:19:21.490Z,30.97
2022-11-15T23:22:10.102Z,33.35
2022-11-15T23:24:42.995Z,32.17
2022-11-15T23:27:15.567Z,32.63
2022-11-15T23:30:04.676Z,32.45
2022-11-15T23:32:56.327Z,33.33
2022-11-15T23:35:32.419Z,32.50
2022-11-15T23:38:02.951Z,32.67
2022-11-15T23:40:34.606Z,32.53
2022-11-15T23:43:05.172Z,31.33
2022-11-15T23:45:38.556Z,33.70
2022-11-15T23:48:10.131Z,32.03
2022-11-15T23:50:41.485Z,34.13
2022-11-15T23:53:12.757Z,33.37
2022-11-15T23:55:44.831Z,33.67
2022-11-15T23:58:16.333Z,33.13
